Time;durP1;ratioP1;P1;durP2;ratioP2;P2;SDS_P1;SDS_P2;PMS_P1;PMS_P2;Temp;Humidity;BMP_temperature;BMP_pressure;BME280_temperature;BME280_humidity;BME280_pressure;Samples;Min_cycle;Max_cycle;Signal;HPM_P1;HPM_P2
2022/07/25 00:02:20;;;;;;;13.27;6.37;;;;;;;-145.18;100.00;46652.59;4997237;28;20061;-76
2022/07/25 00:04:45;;;;;;;8.77;6.20;;;;;;;-145.18;100.00;46656.50;4997209;28;20069;-76
2022/07/25 00:07:11;;;;;;;10.43;7.07;;;;;;;-145.18;100.00;46656.50;4997067;28;20038;-76
2022/07/25 00:09:36;;;;;;;9.63;6.33;;;;;;;-145.18;100.00;46658.44;4997413;28;20034;-77
2022/07/25 00:12:02;;;;;;;8.30;6.10;;;;;;;-145.18;100.00;46656.50;4978575;28;20506;-76
2022/07/25 00:14:27;;;;;;;8.67;6.43;;;;;;;-145.18;100.00;46650.63;4996884;28;20057;-77
2022/07/25 00:16:52;;;;;;;10.07;7.50;;;;;;;-145.18;100.00;46652.59;4998225;28;20041;-78
2022/07/25 00:19:18;;;;;;;11.00;7.33;;;;;;;-145.18;100.00;46654.53;4997997;28;20121;-76
2022/07/25 00:21:44;;;;;;;8.37;7.20;;;;;;;-145.18;100.00;46656.50;4997412;28;20112;-77
2022/07/25 00:24:09;;;;;;;8.43;7.43;;;;;;;-145.18;100.00;46654.53;4997618;28;20045;-77
2022/07/25 00:26:34;;;;;;;10.50;6.83;;;;;;;-145.18;100.00;46656.50;4997120;28;20031;-78
2022/07/25 00:29:00;;;;;;;8.77;6.93;;;;;;;-145.18;100.00;46662.34;4997701;28;20034;-78
2022/07/25 00:31:26;;;;;;;9.60;7.77;;;;;;;-145.18;100.00;46662.34;4997426;28;20037;-77
2022/07/25 00:33:51;;;;;;;8.47;6.70;;;;;;;-145.18;100.00;46664.31;4997668;28;20037;-77
2022/07/25 00:36:16;;;;;;;12.17;7.10;;;;;;;-145.18;100.00;46658.44;4996302;28;20045;-78
2022/07/25 00:38:42;;;;;;;10.53;7.50;;;;;;;-145.18;100.00;46662.34;4998182;28;20059;-77
2022/07/25 00:41:07;;;;;;;9.80;6.73;;;;;;;-145.18;100.00;46656.50;4997612;28;20073;-77
2022/07/25 00:43:33;;;;;;;9.33;6.90;;;;;;;-145.18;100.00;46660.41;4998210;28;20038;-82
2022/07/25 00:45:59;;;;;;;11.27;7.00;;;;;;;-145.18;100.00;46660.41;4997261;28;20483;-77
2022/07/25 00:48:26;;;;;;;8.60;7.10;;;;;;;-145.18;100.00;46662.34;4997022;28;20038;-78
2022/07/25 00:50:51;;;;;;;12.77;7.90;;;;;;;-145.18;100.00;46660.41;4997706;28;20030;-79
2022/07/25 00:53:17;;;;;;;8.47;6.97;;;;;;;-145.18;100.00;46660.41;4997176;28;20395;-76
2022/07/25 00:55:42;;;;;;;10.73;7.47;;;;;;;-145.18;100.00;46660.41;4997907;28;20038;-77
2022/07/25 00:58:08;;;;;;;8.83;7.17;;;;;;;-145.18;100.00;46654.53;4994928;28;20038;-79
2022/07/25 01:00:33;;;;;;;8.47;7.27;;;;;;;-145.18;100.00;46648.69;4976640;28;20225;-81
2022/07/25 01:02:58;;;;;;;9.40;8.27;;;;;;;-145.18;100.00;46660.41;4993573;28;20141;-80
2022/07/25 01:05:24;;;;;;;9.17;8.10;;;;;;;-145.18;100.00;46677.97;4994012;28;20046;-77
2022/07/25 01:07:50;;;;;;;11.87;8.77;;;;;;;-145.18;100.00;46660.41;4993598;28;20088;-76
2022/07/25 01:10:16;;;;;;;13.33;8.57;;;;;;;-145.18;100.00;46660.41;4994703;28;20030;-81
2022/07/25 01:12:50;;;;;;;12.00;9.53;;;;;;;-145.18;100.00;46660.41;4993280;28;20038;-80
2022/07/25 01:15:21;;;;;;;12.93;8.03;;;;;;;-145.18;100.00;46660.41;4994244;28;20037;-79
2022/07/25 01:17:46;;;;;;;10.37;8.10;;;;;;;-145.18;100.00;46660.41;4992902;28;20042;-77
2022/07/25 01:20:17;;;;;;;10.90;7.60;;;;;;;-145.18;100.00;46660.41;4994152;28;20041;-77
2022/07/25 01:22:42;;;;;;;16.73;8.60;;;;;;;-145.18;100.00;46660.41;4993065;28;20058;-78
2022/07/25 01:25:08;;;;;;;14.80;8.30;;;;;;;-145.18;100.00;46660.41;4993347;28;20056;-78
2022/07/25 01:27:34;;;;;;;18.27;8.07;;;;;;;-145.18;100.00;46660.41;4993257;28;20579;-77
2022/07/25 01:29:59;;;;;;;10.93;7.87;;;;;;;-145.18;100.00;46660.41;4993690;28;20030;-78
2022/07/25 01:32:24;;;;;;;14.10;8.23;;;;;;;-145.18;100.00;46660.41;4993713;28;20395;-77
2022/07/25 01:34:50;;;;;;;12.30;8.00;;;;;;;-145.18;100.00;46660.41;4993352;28;20060;-76
2022/07/25 01:37:15;;;;;;;12.50;8.63;;;;;;;-145.18;100.00;46660.41;4992979;28;20093;-76
2022/07/25 01:39:40;;;;;;;10.10;8.43;;;;;;;-145.18;100.00;46677.97;4992942;28;20042;-76
2022/07/25 01:42:06;;;;;;;13.23;8.60;;;;;;;-145.18;100.00;46660.41;4992165;28;20088;-76
2022/07/25 01:44:31;;;;;;;13.27;8.27;;;;;;;-145.18;100.00;46660.41;4975793;28;20113;-76
2022/07/25 01:46:57;;;;;;;9.60;7.87;;;;;;;-145.18;100.00;46660.41;4991449;28;20038;-76
2022/07/25 01:49:24;;;;;;;17.77;8.33;;;;;;;-145.18;100.00;46660.41;4993239;28;20483;-75
2022/07/25 01:51:49;;;;;;;12.40;8.57;;;;;;;-145.18;100.00;46660.41;4992381;28;20037;-76
2022/07/25 01:54:15;;;;;;;10.93;8.00;;;;;;;-145.18;100.00;46660.41;4993053;28;20497;-75
2022/07/25 01:56:44;;;;;;;10.03;8.50;;;;;;;-145.18;100.00;46660.41;4992123;28;20129;-76
2022/07/25 01:59:09;;;;;;;10.97;7.93;;;;;;;-145.18;100.00;46660.41;4992767;28;20026;-75
2022/07/25 02:04:03;;;;;;;12.73;7.87;;;;;;;-145.18;100.00;46660.41;4998793;23;20042;-77
2022/07/25 02:06:29;;;;;;;11.03;7.73;;;;;;;-145.18;100.00;46660.41;4992189;28;20077;-76
2022/07/25 02:08:54;;;;;;;13.07;8.10;;;;;;;-145.18;100.00;46660.41;4990129;28;20046;-77
2022/07/25 02:11:19;;;;;;;10.27;8.30;;;;;;;-145.18;100.00;46660.41;4992418;28;20031;-76
2022/07/25 02:13:45;;;;;;;10.03;8.10;;;;;;;-145.18;100.00;46660.41;4992340;28;20050;-78
2022/07/25 02:16:11;;;;;;;11.00;7.80;;;;;;;-145.18;100.00;46660.41;4993008;28;20415;-76
2022/07/25 02:18:37;;;;;;;18.13;8.37;;;;;;;-145.18;100.00;46660.41;4992659;28;20438;-77
2022/07/25 02:21:06;;;;;;;8.87;7.97;;;;;;;-145.18;100.00;46660.41;4992068;28;20093;-78
2022/07/25 02:23:32;;;;;;;11.57;8.30;;;;;;;-145.18;100.00;46660.41;4993291;28;20038;-77
2022/07/25 02:25:57;;;;;;;8.97;8.00;;;;;;;-145.18;100.00;46660.41;4992999;28;20030;-79
2022/07/25 02:28:22;;;;;;;8.87;6.93;;;;;;;-145.18;100.00;46660.41;4992316;28;20061;-78
2022/07/25 02:30:48;;;;;;;14.43;8.47;;;;;;;-145.18;100.00;46660.41;4993226;28;20034;-79
2022/07/25 02:33:13;;;;;;;16.50;8.63;;;;;;;-145.18;100.00;46660.41;4992349;28;20038;-77
2022/07/25 02:35:38;;;;;;;12.27;7.73;;;;;;;-145.18;100.00;46660.41;4993098;28;20066;-78
2022/07/25 02:38:04;;;;;;;10.97;7.30;;;;;;;-145.18;100.00;46660.41;4993731;28;20038;-77
2022/07/25 02:40:29;;;;;;;10.20;7.53;;;;;;;-145.18;100.00;46660.41;4992774;28;20026;-76
2022/07/25 02:42:55;;;;;;;13.33;8.50;;;;;;;-145.18;100.00;46660.41;4991337;28;20450;-76
2022/07/25 02:45:20;;;;;;;9.67;7.17;;;;;;;-145.18;100.00;46660.41;4992847;28;20479;-79
2022/07/25 02:47:45;;;;;;;10.80;8.27;;;;;;;-145.18;100.00;46660.41;4991750;28;20038;-78
2022/07/25 02:50:11;;;;;;;10.50;8.23;;;;;;;-145.18;100.00;46660.41;4991840;28;20027;-78
2022/07/25 02:52:37;;;;;;;13.60;8.53;;;;;;;-145.18;100.00;46660.41;4991728;28;20394;-77
2022/07/25 02:55:03;;;;;;;9.97;8.10;;;;;;;-145.18;100.00;46660.41;4992364;28;20035;-77
2022/07/25 02:57:28;;;;;;;12.93;8.77;;;;;;;-145.18;100.00;46660.41;4991352;28;20173;-77
2022/07/25 02:59:54;;;;;;;12.70;8.67;;;;;;;-145.18;100.00;46660.41;4992100;28;20513;-78
2022/07/25 03:02:19;;;;;;;14.47;8.57;;;;;;;-145.18;100.00;46660.41;4990859;28;20069;-76
2022/07/25 03:04:44;;;;;;;11.13;7.77;;;;;;;-145.18;100.00;46660.41;4992140;28;20092;-79
2022/07/25 03:07:10;;;;;;;13.73;9.33;;;;;;;-145.18;100.00;46660.41;4991783;28;20041;-80
2022/07/25 03:09:35;;;;;;;10.83;9.13;;;;;;;-145.18;100.00;46660.41;4975420;28;20475;-77
2022/07/25 03:12:01;;;;;;;10.80;9.37;;;;;;;-145.18;100.00;46660.41;4991136;28;20026;-77
2022/07/25 03:14:26;;;;;;;11.00;9.43;;;;;;;-145.18;100.00;46660.41;4991699;28;20065;-77
2022/07/25 03:16:52;;;;;;;13.40;9.33;;;;;;;-145.18;100.00;46660.41;4992681;28;20125;-77
2022/07/25 03:19:17;;;;;;;16.10;9.67;;;;;;;-145.18;100.00;46660.41;4992140;28;20050;-79
2022/07/25 03:21:44;;;;;;;12.03;9.67;;;;;;;-145.18;100.00;46660.41;4991560;28;20045;-78
2022/07/25 03:24:09;;;;;;;12.80;9.83;;;;;;;-145.18;100.00;46660.41;4991551;28;20117;-78
2022/07/25 03:26:35;;;;;;;12.90;10.07;;;;;;;-145.18;100.00;46660.41;4992508;28;20034;-77
2022/07/25 03:29:00;;;;;;;14.03;10.87;;;;;;;-145.18;100.00;46660.41;4991090;28;20093;-77
2022/07/25 03:31:25;;;;;;;15.73;9.90;;;;;;;-145.18;100.00;46660.41;4992424;28;20046;-78
2022/07/25 03:33:51;;;;;;;15.80;10.87;;;;;;;-145.18;100.00;46660.41;4991453;28;20072;-77
2022/07/25 03:36:16;;;;;;;15.03;10.50;;;;;;;-145.18;100.00;46660.41;4991467;28;20173;-77
2022/07/25 03:38:41;;;;;;;11.73;9.60;;;;;;;-145.18;100.00;46660.41;4990686;28;20038;-76
2022/07/25 03:41:07;;;;;;;12.67;9.70;;;;;;;-145.18;100.00;46660.41;4991423;28;20106;-80
2022/07/25 03:43:32;;;;;;;14.57;11.07;;;;;;;-145.18;100.00;46660.41;4985113;28;20038;-77
2022/07/25 03:45:57;;;;;;;13.17;9.87;;;;;;;-145.18;100.00;46660.41;4981699;28;20487;-77
2022/07/25 03:48:23;;;;;;;14.70;9.67;;;;;;;-145.18;100.00;46660.41;4990429;28;20136;-78
2022/07/25 03:50:48;;;;;;;14.57;9.70;;;;;;;-145.18;100.00;46660.41;4991312;28;20100;-77
2022/07/25 03:53:13;;;;;;;14.60;9.33;;;;;;;-145.18;100.00;46660.41;4990826;28;20034;-78
2022/07/25 03:55:39;;;;;;;13.40;9.70;;;;;;;-145.18;100.00;46660.41;4989783;28;20034;-76
2022/07/25 03:58:04;;;;;;;12.80;9.13;;;;;;;-145.18;100.00;46660.41;4982281;28;20027;-80
2022/07/25 04:00:30;;;;;;;15.10;9.73;;;;;;;-145.18;100.00;46660.41;4983428;28;20049;-79
2022/07/25 04:02:55;;;;;;;20.50;10.43;;;;;;;-145.18;100.00;46660.41;4983157;28;20062;-78
2022/07/25 04:05:20;;;;;;;14.03;9.77;;;;;;;-145.18;100.00;46660.41;4990053;28;20039;-79
2022/07/25 04:07:46;;;;;;;12.97;10.07;;;;;;;-145.18;100.00;46660.41;4978779;28;20130;-79
2022/07/25 04:10:11;;;;;;;14.60;9.67;;;;;;;-145.18;100.00;46679.94;4979404;28;20545;-79
2022/07/25 04:12:37;;;;;;;12.67;9.20;;;;;;;-145.18;100.00;46660.41;4979461;28;20038;-79
2022/07/25 04:15:03;;;;;;;16.83;10.27;;;;;;;-145.18;100.00;46660.41;4989476;28;20109;-78
2022/07/25 04:17:29;;;;;;;13.90;10.30;;;;;;;-145.18;100.00;46677.97;4990433;28;20451;-78
2022/07/25 04:19:54;;;;;;;15.53;10.07;;;;;;;-145.18;100.00;46660.41;4997551;28;20030;-80
2022/07/25 04:22:19;;;;;;;15.57;9.50;;;;;;;-145.18;100.00;46660.41;4990072;28;20042;-80
2022/07/25 04:24:46;;;;;;;13.20;9.33;;;;;;;-145.18;100.00;46640.88;4990382;28;20043;-80
2022/07/25 04:27:11;;;;;;;13.13;9.30;;;;;;;-145.18;100.00;46638.91;4990311;28;20030;-79
2022/07/25 04:29:36;;;;;;;17.03;9.83;;;;;;;-145.18;100.00;46660.41;4990078;28;20466;-76
2022/07/25 04:32:02;;;;;;;16.67;9.43;;;;;;;-145.18;100.00;46638.91;4991066;28;20034;-78
2022/07/25 04:34:27;;;;;;;14.57;9.17;;;;;;;-145.18;100.00;46677.97;4992867;28;20092;-80
2022/07/25 04:36:53;;;;;;;13.23;9.60;;;;;;;-145.18;100.00;46638.91;4994002;28;20118;-78
2022/07/25 04:39:18;;;;;;;14.63;9.53;;;;;;;-145.18;100.00;46640.88;4993316;28;20049;-79
2022/07/25 04:41:43;;;;;;;13.57;9.43;;;;;;;-145.18;100.00;46660.41;4994089;28;20030;-79
2022/07/25 04:44:09;;;;;;;13.30;10.00;;;;;;;-145.18;100.00;46660.41;4993319;28;20474;-78
2022/07/25 04:46:34;;;;;;;11.10;9.83;;;;;;;-145.18;100.00;46660.41;4994000;28;20077;-78
2022/07/25 04:49:00;;;;;;;10.23;8.97;;;;;;;-145.18;100.00;46660.41;4993007;28;20475;-79
2022/07/25 04:51:25;;;;;;;11.20;9.97;;;;;;;-145.18;100.00;46660.41;4994423;28;20034;-80
2022/07/25 04:53:50;;;;;;;12.57;9.90;;;;;;;-145.18;100.00;46660.41;4991802;28;20403;-77
2022/07/25 04:56:16;;;;;;;13.33;9.27;;;;;;;-145.18;100.00;46660.41;4976034;28;20070;-79
2022/07/25 04:58:42;;;;;;;10.77;9.47;;;;;;;-145.18;100.00;46660.41;4993748;28;20066;-80
2022/07/25 05:01:07;;;;;;;11.33;9.43;;;;;;;-145.18;100.00;46660.41;4994000;28;20893;-78
2022/07/25 05:03:32;;;;;;;13.00;9.80;;;;;;;-145.18;100.00;46660.41;4991935;28;20128;-79
2022/07/25 05:05:58;;;;;;;14.07;10.27;;;;;;;-145.18;100.00;46660.41;4994133;28;20452;-80
2022/07/25 05:08:23;;;;;;;13.03;9.10;;;;;;;-145.18;100.00;46660.41;4994044;28;20121;-79
2022/07/25 05:10:49;;;;;;;14.23;10.53;;;;;;;-145.18;100.00;46660.41;4994113;28;20529;-80
2022/07/25 05:13:15;;;;;;;15.57;10.27;;;;;;;-145.18;100.00;46660.41;4993092;28;20792;-79
2022/07/25 05:15:40;;;;;;;13.40;10.83;;;;;;;-145.18;100.00;46660.41;4994850;28;20050;-79
2022/07/25 05:18:05;;;;;;;15.17;10.83;;;;;;;-145.18;100.00;46660.41;4994355;28;20038;-79
2022/07/25 05:20:31;;;;;;;14.80;10.30;;;;;;;-145.18;100.00;46660.41;4979802;28;20112;-80
2022/07/25 05:22:56;;;;;;;15.30;10.67;;;;;;;-145.18;100.00;46660.41;4993682;28;20069;-80
2022/07/25 05:25:22;;;;;;;13.13;10.50;;;;;;;-145.18;100.00;46660.41;4995305;28;20073;-79
2022/07/25 05:27:47;;;;;;;13.97;9.90;;;;;;;-145.18;100.00;46660.41;4991879;28;20042;-79
2022/07/25 05:30:13;;;;;;;15.33;8.17;;;;;;;-145.18;100.00;46660.41;4997151;28;20046;-79
2022/07/25 05:32:40;;;;;;;11.60;7.70;;;;;;;-145.18;100.00;46660.41;4995249;28;20057;-78
2022/07/25 05:35:06;;;;;;;12.47;8.20;;;;;;;-145.18;100.00;46660.41;5000195;28;20514;-79
2022/07/25 05:37:33;;;;;;;10.20;6.73;;;;;;;-145.18;100.00;46660.41;4994621;28;20045;-79
2022/07/25 05:39:59;;;;;;;7.43;5.33;;;;;;;-145.18;100.00;46660.41;4995753;28;20026;-78
2022/07/25 05:42:24;;;;;;;9.43;5.50;;;;;;;-145.18;100.00;46660.41;4993098;28;20042;-79
2022/07/25 05:44:49;;;;;;;7.30;5.10;;;;;;;-145.18;100.00;46660.41;4993059;28;20130;-78
2022/07/25 05:47:15;;;;;;;6.47;4.70;;;;;;;-145.18;100.00;46660.41;5006350;28;20042;-78
2022/07/25 05:49:41;;;;;;;6.90;5.30;;;;;;;-145.18;100.00;46660.41;5012548;28;20073;-78
2022/07/25 05:52:06;;;;;;;6.07;4.77;;;;;;;-145.18;100.00;46631.09;5012464;28;20034;-78
2022/07/25 05:54:33;;;;;;;11.80;4.90;;;;;;;-145.18;100.00;46660.41;4993737;28;20053;-80
2022/07/25 05:56:58;;;;;;;9.17;4.37;;;;;;;-145.18;100.00;46631.09;4992512;28;20037;-80
2022/07/25 05:59:23;;;;;;;8.97;3.60;;;;;;;-145.18;100.00;46633.06;4992595;28;20046;-79
2022/07/25 06:01:49;;;;;;;6.47;3.97;;;;;;;-145.18;100.00;46633.06;4992494;28;20073;-79
2022/07/25 06:04:14;;;;;;;4.97;3.10;;;;;;;-145.18;100.00;46633.06;4992488;28;20030;-79
2022/07/25 06:06:39;;;;;;;7.97;3.40;;;;;;;-145.18;100.00;46635.00;4974449;28;20178;-77
2022/07/25 06:09:05;;;;;;;3.30;3.00;;;;;;;-145.18;100.00;46635.00;4990082;28;20043;-79
2022/07/25 06:11:31;;;;;;;4.97;2.73;;;;;;;-145.18;100.00;46635.00;4989431;28;20054;-79
2022/07/25 06:13:57;;;;;;;2.43;2.10;;;;;;;-145.18;100.00;46633.06;4991065;28;20035;-79
2022/07/25 06:16:22;;;;;;;5.47;2.70;;;;;;;-145.18;100.00;46636.94;4992509;28;20045;-79
2022/07/25 06:18:48;;;;;;;4.67;2.40;;;;;;;-145.18;100.00;46636.94;4992116;28;20070;-78
2022/07/25 06:21:13;;;;;;;5.80;2.40;;;;;;;-145.18;100.00;46636.94;4992369;28;20066;-79
2022/07/25 06:23:39;;;;;;;10.70;2.37;;;;;;;-145.18;100.00;46638.91;4999592;28;20034;-80
2022/07/25 06:26:08;;;;;;;3.80;1.93;;;;;;;-145.18;100.00;46635.00;4992655;28;20202;-79
2022/07/25 06:28:33;;;;;;;5.23;2.27;;;;;;;-145.18;100.00;46636.94;4991757;28;20118;-79
2022/07/25 06:30:58;;;;;;;3.40;1.90;;;;;;;-145.18;100.00;46635.00;4992119;28;20447;-78
2022/07/25 06:33:24;;;;;;;11.23;2.10;;;;;;;-145.18;100.00;46636.94;4991925;28;20097;-78
2022/07/25 06:35:49;;;;;;;5.50;2.33;;;;;;;-145.18;100.00;46635.00;4992562;28;20044;-78
2022/07/25 06:38:14;;;;;;;6.73;2.37;;;;;;;-145.18;100.00;46638.91;4991647;28;20098;-77
2022/07/25 06:40:40;;;;;;;5.47;1.93;;;;;;;-145.18;100.00;46633.06;4992524;28;20034;-78
2022/07/25 06:43:05;;;;;;;8.37;2.13;;;;;;;-145.18;100.00;46633.06;4990718;28;20041;-78
2022/07/25 06:45:30;;;;;;;6.20;2.00;;;;;;;-145.18;100.00;46633.06;4992121;28;20376;-78
2022/07/25 06:47:56;;;;;;;5.37;1.93;;;;;;;-145.18;100.00;46631.09;4974063;28;20069;-78
2022/07/25 06:50:21;;;;;;;7.17;1.70;;;;;;;-145.18;100.00;46631.09;4974019;28;20046;-79
2022/07/25 06:52:47;;;;;;;8.10;1.67;;;;;;;-145.18;100.00;46633.06;4991048;28;20042;-77
2022/07/25 06:55:14;;;;;;;7.53;1.90;;;;;;;-145.18;100.00;46633.06;4991159;28;20077;-78
2022/07/25 06:57:40;;;;;;;7.83;2.10;;;;;;;-145.18;100.00;46631.09;4991032;28;20038;-78
2022/07/25 07:00:09;;;;;;;6.83;1.73;;;;;;;-145.18;100.00;46629.13;4991133;28;20453;-78
2022/07/25 07:02:45;;;;;;;10.53;1.73;;;;;;;-145.18;100.00;46633.06;4991281;28;20054;-78
2022/07/25 07:05:11;;;;;;;5.33;2.03;;;;;;;-145.18;100.00;46627.19;4990749;28;20487;-78
2022/07/25 07:07:36;;;;;;;8.77;2.10;;;;;;;-145.18;100.00;46623.28;4991302;28;20039;-78
2022/07/25 07:10:02;;;;;;;8.40;1.60;;;;;;;-145.18;100.00;46627.19;4990947;28;20372;-78
2022/07/25 07:12:27;;;;;;;9.47;2.10;;;;;;;-145.18;100.00;46631.09;4990841;28;20050;-79
2022/07/25 07:14:53;;;;;;;5.50;1.57;;;;;;;-145.18;100.00;46631.09;4973516;28;20027;-77
2022/07/25 07:17:18;;;;;;;8.33;1.93;;;;;;;-145.18;100.00;46631.09;4989825;28;20038;-78
2022/07/25 07:19:44;;;;;;;8.60;1.60;;;;;;;-145.18;100.00;46627.19;4990468;28;20044;-77
2022/07/25 07:22:10;;;;;;;5.47;1.67;;;;;;;-145.18;100.00;46625.22;4990446;28;20030;-78
2022/07/25 07:24:35;;;;;;;6.57;2.00;;;;;;;-145.18;100.00;46623.28;4990375;28;20102;-78
2022/07/25 07:27:01;;;;;;;5.60;1.50;;;;;;;-145.18;100.00;46623.28;4990193;28;20085;-77
2022/07/25 07:29:27;;;;;;;8.23;1.70;;;;;;;-145.18;100.00;46625.22;4990551;28;20030;-78
2022/07/25 07:31:52;;;;;;;9.83;2.37;;;;;;;-145.18;100.00;46623.28;4991124;28;20045;-79
2022/07/25 07:34:17;;;;;;;6.40;1.70;;;;;;;-145.18;100.00;46621.31;4990183;28;20439;-78
2022/07/25 07:36:43;;;;;;;7.30;1.80;;;;;;;-145.18;100.00;46623.28;4990946;28;20093;-78
2022/07/25 07:39:08;;;;;;;7.20;1.70;;;;;;;-145.18;100.00;46625.22;4990058;28;20109;-78
2022/07/25 07:41:34;;;;;;;7.73;2.07;;;;;;;-145.18;100.00;46623.28;4990629;28;20061;-77
2022/07/25 07:43:59;;;;;;;9.10;1.80;;;;;;;-145.18;100.00;46625.22;4990440;28;20031;-78
2022/07/25 07:46:24;;;;;;;10.57;2.03;;;;;;;-145.18;100.00;46617.41;4988236;28;20394;-77
2022/07/25 07:48:50;;;;;;;7.97;1.87;;;;;;;-145.18;100.00;46627.19;4989833;28;20042;-77
2022/07/25 07:51:15;;;;;;;6.83;1.50;;;;;;;-145.18;100.00;46619.38;4990791;28;20076;-78
2022/07/25 07:56:24;;;;;;;7.97;1.80;;;;;;;-145.18;100.00;46623.28;4990913;28;20036;-78
2022/07/25 07:58:50;;;;;;;6.13;1.77;;;;;;;-145.18;100.00;46623.28;4972253;28;20113;-78
2022/07/25 08:01:15;;;;;;;7.67;1.80;;;;;;;-145.18;100.00;46625.22;4972831;28;20034;-78
2022/07/25 08:03:40;;;;;;;10.17;2.20;;;;;;;-145.18;100.00;46625.22;4989886;28;20050;-78
2022/07/25 08:06:06;;;;;;;6.77;2.00;;;;;;;-145.18;100.00;46627.19;4989522;28;20049;-78
2022/07/25 08:08:31;;;;;;;7.07;2.23;;;;;;;-145.18;100.00;46631.09;4993422;28;20026;-78
2022/07/25 08:10:57;;;;;;;5.10;2.17;;;;;;;-145.18;100.00;46625.22;4994857;28;20122;-78
2022/07/25 08:13:28;;;;;;;8.33;1.90;;;;;;;-145.18;100.00;46627.19;4993866;28;20069;-78
2022/07/25 08:15:56;;;;;;;5.73;1.90;;;;;;;-145.18;100.00;46627.19;4994300;28;20101;-78
2022/07/25 08:18:23;;;;;;;5.00;1.70;;;;;;;-145.18;100.00;46627.19;4993403;28;20031;-77
2022/07/25 08:20:49;;;;;;;7.53;2.43;;;;;;;-145.18;100.00;46629.13;4994324;28;20052;-78
2022/07/25 08:23:15;;;;;;;7.47;1.80;;;;;;;-145.18;100.00;46635.00;5000420;28;20069;-78
2022/07/25 08:25:42;;;;;;;8.43;1.83;;;;;;;-145.18;100.00;46631.09;4994264;28;20101;-78
2022/07/25 08:28:08;;;;;;;8.50;2.53;;;;;;;-145.18;100.00;46635.00;4993380;28;20053;-78
2022/07/25 08:30:38;;;;;;;8.07;2.13;;;;;;;-145.18;100.00;46633.06;4994167;28;20483;-78
2022/07/25 08:33:06;;;;;;;8.93;2.20;;;;;;;-145.18;100.00;46633.06;4993372;28;20093;-78
2022/07/25 08:35:33;;;;;;;8.60;2.83;;;;;;;-145.18;100.00;46638.91;4975917;28;20462;-77
2022/07/25 08:37:59;;;;;;;7.30;1.90;;;;;;;-145.18;100.00;46640.88;4993304;28;20077;-78
2022/07/25 08:40:27;;;;;;;8.00;2.67;;;;;;;-145.18;100.00;46635.00;4990980;28;20376;-78
2022/07/25 08:42:53;;;;;;;10.23;2.40;;;;;;;-145.18;100.00;46636.94;4993368;28;20046;-79
2022/07/25 08:45:20;;;;;;;8.87;2.57;;;;;;;-145.18;100.00;46633.06;4992649;28;20108;-78
2022/07/25 08:47:47;;;;;;;6.67;2.97;;;;;;;-145.18;100.00;46638.91;4993376;28;20045;-78
2022/07/25 08:50:15;;;;;;;10.60;2.30;;;;;;;-145.18;100.00;46633.06;4992528;28;20376;-79
2022/07/25 08:52:44;;;;;;;8.97;2.17;;;;;;;-145.18;100.00;46636.94;4994084;28;20026;-78
2022/07/25 08:55:13;;;;;;;9.77;2.40;;;;;;;-145.18;100.00;46640.88;4993181;28;20034;-78
2022/07/25 08:57:42;;;;;;;7.93;2.30;;;;;;;-145.18;100.00;46640.88;4993818;28;20054;-78
2022/07/25 09:00:10;;;;;;;10.47;2.43;;;;;;;-145.18;100.00;46640.88;4992404;28;20499;-78
2022/07/25 09:02:36;;;;;;;11.57;2.53;;;;;;;-145.18;100.00;46636.94;4993673;28;20050;-78
2022/07/25 09:05:01;;;;;;;3.70;1.90;;;;;;;-145.18;100.00;46635.00;4993373;28;20106;-79
2022/07/25 09:07:38;;;;;;;7.67;2.23;;;;;;;-145.18;100.00;46635.00;4994288;28;20031;-79
2022/07/25 09:10:24;;;;;;;8.77;2.57;;;;;;;-145.18;100.00;46635.00;4993018;28;20027;-78
2022/07/25 09:13:01;;;;;;;5.67;1.97;;;;;;;-145.18;100.00;46642.81;4993465;28;20038;-78
2022/07/25 09:15:33;;;;;;;9.60;2.20;;;;;;;-145.18;100.00;46640.88;4993667;28;20022;-79
2022/07/25 09:18:07;;;;;;;6.70;2.07;;;;;;;-145.18;100.00;46642.81;4993677;28;20030;-79
2022/07/25 09:20:43;;;;;;;9.30;2.10;;;;;;;-145.18;100.00;46638.91;4992685;28;20027;-78
2022/07/25 09:23:10;;;;;;;10.43;2.50;;;;;;;-145.18;100.00;46646.72;4999638;28;20639;-78
2022/07/25 09:25:36;;;;;;;7.97;2.27;;;;;;;-145.18;100.00;46648.69;4993199;28;20030;-78
2022/07/25 09:28:13;;;;;;;7.20;2.30;;;;;;;-145.18;100.00;46646.72;4975539;28;20394;-78
2022/07/25 09:30:40;;;;;;;6.03;2.17;;;;;;;-145.18;100.00;46617.41;4992754;28;20481;-78
2022/07/25 09:33:05;;;;;;;8.07;2.30;;;;;;;-145.18;100.00;46619.38;4992369;28;20441;-78
2022/07/25 09:35:33;;;;;;;6.23;2.20;;;;;;;-145.18;100.00;46580.31;4992343;28;20038;-79
2022/07/25 09:38:12;;;;;;;10.33;2.53;;;;;;;-145.18;100.00;46545.16;4992748;28;20128;-78
2022/07/25 09:40:38;;;;;;;5.10;2.20;;;;;;;-145.18;100.00;46515.84;4992294;28;20034;-79
2022/07/25 09:43:04;;;;;;;8.77;2.30;;;;;;;-145.18;100.00;46510.00;4991845;28;20033;-79
2022/07/25 09:45:30;;;;;;;7.03;1.90;;;;;;;-145.18;100.00;46517.81;4981771;28;20061;-78
2022/07/25 09:48:02;;;;;;;10.17;2.20;;;;;;;-145.18;100.00;46508.03;4992741;28;20630;-79
2022/07/25 09:50:31;;;;;;;8.43;2.30;;;;;;;-145.18;100.00;46519.75;4992084;28;20030;-78
2022/07/25 09:53:00;;;;;;;10.63;2.07;;;;;;;-145.18;100.00;46511.94;4992593;28;20030;-78
2022/07/25 09:55:27;;;;;;;7.20;2.13;;;;;;;-145.18;100.00;46515.84;4992686;28;20033;-78
2022/07/25 09:57:52;;;;;;;9.67;2.50;;;;;;;-145.18;100.00;46517.81;4992755;28;20129;-78
2022/07/25 10:00:22;;;;;;;7.80;2.53;;;;;;;-145.18;100.00;46510.00;4991734;28;20193;-78
2022/07/25 10:02:53;;;;;;;9.00;2.30;;;;;;;-145.18;100.00;46506.09;4991933;28;20066;-78
2022/07/25 10:05:47;;;;;;;8.85;2.45;;;;;;;-145.18;100.00;46506.09;4992032;28;20046;-79
2022/07/25 10:08:12;;;;;;;10.18;2.97;;;;;;;-145.18;100.00;46506.09;4992543;28;20403;-78
2022/07/25 10:10:40;;;;;;;10.18;2.72;;;;;;;-145.18;100.00;46490.47;4992647;28;20041;-78
2022/07/25 10:13:16;;;;;;;6.90;2.53;;;;;;;-145.18;100.00;46490.47;4992171;28;20026;-78
2022/07/25 10:15:49;;;;;;;11.68;2.78;;;;;;;-145.18;100.00;46492.41;4991930;28;20097;-78
2022/07/25 10:18:18;;;;;;;8.77;2.40;;;;;;;-145.18;100.00;46511.94;4991646;28;20501;-79
2022/07/25 10:20:45;;;;;;;7.80;2.50;;;;;;;-145.18;100.00;46496.31;4992048;28;20029;-80
2022/07/25 10:23:21;;;;;;;6.87;2.10;;;;;;;-145.18;100.00;46500.22;4998114;28;20038;-78
2022/07/25 10:26:03;;;;;;;15.00;3.00;;;;;;;-145.18;100.00;46506.09;4992291;28;20022;-78
2022/07/25 10:28:43;;;;;;;6.23;2.23;;;;;;;-145.18;100.00;46496.31;4991632;28;20769;-78
2022/07/25 10:31:30;;;;;;;9.43;2.58;;;;;;;-145.18;100.00;46486.56;4991316;28;20030;-78
2022/07/25 10:33:58;;;;;;;8.87;2.23;;;;;;;-145.18;100.00;46470.94;4991601;28;20038;-77
2022/07/25 10:36:28;;;;;;;13.85;2.97;;;;;;;-145.18;100.00;46490.47;4991535;28;20034;-78
2022/07/25 10:38:59;;;;;;;19.92;3.60;;;;;;;-145.18;100.00;46480.69;4991434;28;20027;-78
2022/07/25 10:41:27;;;;;;;11.50;2.50;;;;;;;-145.18;100.00;46500.22;4992123;28;20049;-79
2022/07/25 10:43:56;;;;;;;7.88;2.33;;;;;;;-145.18;100.00;46533.44;4991953;28;20116;-79
2022/07/25 10:46:25;;;;;;;9.70;2.33;;;;;;;-145.18;100.00;46500.22;4975028;28;20034;-78
2022/07/25 10:49:03;;;;;;;11.13;2.47;;;;;;;-145.18;100.00;46517.81;4991381;28;20032;-78
2022/07/25 10:51:33;;;;;;;10.10;2.57;;;;;;;-145.18;100.00;46517.81;4992607;28;20048;-80
2022/07/25 10:53:59;;;;;;;11.97;2.83;;;;;;;-145.18;100.00;46525.63;4991972;28;20517;-79
2022/07/25 10:56:27;;;;;;;12.90;3.10;;;;;;;-145.18;100.00;46531.47;4991966;28;20023;-78
2022/07/25 10:58:56;;;;;;;10.33;3.07;;;;;;;-145.18;100.00;46531.47;4991772;28;20058;-80
2022/07/25 11:01:29;;;;;;;7.20;2.50;;;;;;;-145.18;100.00;46535.38;4992897;28;20019;-79
2022/07/25 11:03:59;;;;;;;12.83;3.97;;;;;;;-145.18;100.00;46531.47;4992028;28;20052;-79
2022/07/25 11:06:36;;;;;;;10.20;3.10;;;;;;;-145.18;100.00;46529.53;4973973;28;20399;-77
2022/07/25 11:09:25;;;;;;;9.77;3.10;;;;;;;-145.18;100.00;46547.09;4991291;28;20064;-78